Time;durP1;ratioP1;P1;durP2;ratioP2;P2;SDS_P1;SDS_P2;PMS_P1;PMS_P2;Temp;Humidity;BMP_temperature;BMP_pressure;BME280_temperature;BME280_humidity;BME280_pressure;Samples;Min_cycle;Max_cycle;Signal;HPM_P1;HPM_P2
2024/01/07 00:01:36;;;;;;;3.47;2.28;;;0.90;99.90;;;;;;5063975;28;20092;-79
2024/01/07 00:04:02;;;;;;;5.97;1.98;;;0.90;99.90;;;;;;5062476;28;20053;-79
2024/01/07 00:06:27;;;;;;;0.88;0.88;;;0.90;99.90;;;;;;5042619;28;20036;-81
2024/01/07 00:08:53;;;;;;;2.15;1.23;;;0.80;99.90;;;;;;5064456;28;20068;-81
2024/01/07 00:11:22;;;;;;;3.83;1.75;;;0.80;99.90;;;;;;5060420;28;20037;-81
2024/01/07 00:13:48;;;;;;;4.25;2.92;;;0.80;99.90;;;;;;5040302;28;20033;-81
2024/01/07 00:16:14;;;;;;;2.08;1.73;;;0.80;99.90;;;;;;5060079;28;20041;-82
2024/01/07 00:18:40;;;;;;;2.50;2.15;;;0.80;99.90;;;;;;5040881;28;20047;-81
2024/01/07 00:21:05;;;;;;;5.20;1.70;;;0.80;99.90;;;;;;5062550;28;20072;-81
2024/01/07 00:23:31;;;;;;;1.50;1.40;;;0.80;99.90;;;;;;5066414;28;20041;-81
2024/01/07 00:25:57;;;;;;;2.75;1.27;;;0.80;99.90;;;;;;5062720;28;20035;-81
2024/01/07 00:28:22;;;;;;;1.48;1.38;;;0.80;99.90;;;;;;5050905;28;20061;-82
2024/01/07 00:30:48;;;;;;;1.10;0.95;;;0.80;99.90;;;;;;5052013;28;20033;-81
2024/01/07 00:33:14;;;;;;;4.03;1.58;;;0.80;99.90;;;;;;5066172;28;20075;-81
2024/01/07 00:35:39;;;;;;;2.00;1.77;;;0.90;99.90;;;;;;5059281;28;20602;-81
2024/01/07 00:38:05;;;;;;;1.38;1.25;;;0.90;99.90;;;;;;5044498;28;20064;-81
2024/01/07 00:40:31;;;;;;;2.97;2.55;;;0.90;99.90;;;;;;5040072;28;20032;-81
2024/01/07 00:42:57;;;;;;;4.65;1.95;;;0.80;99.90;;;;;;5057085;28;20076;-82
2024/01/07 00:45:22;;;;;;;2.28;1.27;;;0.90;99.90;;;;;;5061025;28;20048;-81
2024/01/07 00:47:48;;;;;;;11.40;2.03;;;0.90;99.90;;;;;;5044701;28;20044;-81
2024/01/07 00:50:14;;;;;;;2.80;2.38;;;0.80;99.90;;;;;;5063755;28;20044;-82
2024/01/07 00:52:43;;;;;;;4.20;1.80;;;0.90;99.90;;;;;;5061261;28;20051;-81
2024/01/07 00:55:08;;;;;;;2.92;2.15;;;0.90;99.90;;;;;;5050796;28;20024;-82
2024/01/07 00:57:34;;;;;;;3.45;1.42;;;0.90;99.90;;;;;;5048275;28;20059;-83
2024/01/07 01:00:00;;;;;;;1.98;1.80;;;0.90;99.90;;;;;;5044586;28;20504;-81
2024/01/07 01:02:26;;;;;;;3.42;1.95;;;0.90;99.90;;;;;;5068180;28;20387;-82
2024/01/07 01:04:52;;;;;;;1.58;1.38;;;0.90;99.90;;;;;;5071404;28;20056;-83
2024/01/07 01:07:17;;;;;;;5.65;1.95;;;0.90;99.90;;;;;;5052592;28;20045;-82
2024/01/07 01:09:43;;;;;;;2.60;1.95;;;0.90;99.90;;;;;;5067388;28;20048;-82
2024/01/07 01:12:09;;;;;;;1.65;1.23;;;0.80;99.90;;;;;;5063352;28;20048;-82
2024/01/07 01:14:34;;;;;;;1.98;1.52;;;0.90;99.90;;;;;;5068476;28;20037;-82
2024/01/07 01:17:00;;;;;;;1.67;1.55;;;0.90;99.90;;;;;;5057211;28;20051;-82
2024/01/07 01:19:26;;;;;;;2.13;1.42;;;0.90;99.90;;;;;;5047053;28;20097;-82
2024/01/07 01:21:52;;;;;;;6.93;1.45;;;0.90;99.90;;;;;;5042401;28;20037;-82
2024/01/07 01:24:18;;;;;;;1.50;1.10;;;1.00;99.90;;;;;;5047722;28;20051;-82
2024/01/07 01:26:43;;;;;;;3.35;1.95;;;0.90;99.90;;;;;;5050828;28;20466;-82
2024/01/07 01:29:09;;;;;;;1.65;1.15;;;0.90;99.90;;;;;;5044516;28;20128;-82
2024/01/07 01:31:35;;;;;;;1.42;1.33;;;0.90;99.90;;;;;;5029043;28;20078;-82
2024/01/07 01:34:00;;;;;;;0.98;0.93;;;0.90;99.90;;;;;;5039634;28;20041;-82
2024/01/07 01:36:26;;;;;;;2.25;1.48;;;0.90;99.90;;;;;;5044909;28;20037;-82
2024/01/07 01:38:52;;;;;;;3.00;1.92;;;0.90;99.90;;;;;;5030180;28;20079;-82
2024/01/07 01:41:18;;;;;;;6.25;2.78;;;0.90;99.90;;;;;;5051416;28;20071;-82
2024/01/07 01:43:43;;;;;;;2.65;2.28;;;0.80;99.90;;;;;;5034462;28;20037;-82
2024/01/07 01:46:09;;;;;;;1.10;1.00;;;0.90;99.90;;;;;;5048516;28;20046;-82
2024/01/07 01:48:38;;;;;;;1.60;1.42;;;0.90;99.90;;;;;;5033970;28;20128;-82
2024/01/07 01:51:04;;;;;;;2.25;1.95;;;0.90;99.90;;;;;;5044681;28;20152;-82
2024/01/07 01:53:31;;;;;;;3.22;2.15;;;0.90;99.90;;;;;;5041586;28;20128;-82
2024/01/07 01:55:59;;;;;;;1.25;0.88;;;0.90;99.90;;;;;;5048064;28;20385;-82
2024/01/07 01:58:26;;;;;;;2.67;1.75;;;0.90;99.90;;;;;;5047346;28;20487;-82
2024/01/07 02:00:52;;;;;;;1.83;1.20;;;0.90;99.90;;;;;;5033611;28;20116;-82
2024/01/07 02:03:18;;;;;;;2.83;1.52;;;0.90;99.90;;;;;;5046222;28;20132;-82
2024/01/07 02:05:44;;;;;;;2.65;1.83;;;0.90;99.90;;;;;;5029752;28;20541;-83
2024/01/07 02:08:11;;;;;;;1.52;1.00;;;0.90;99.90;;;;;;5052782;28;20043;-82
2024/01/07 02:10:37;;;;;;;7.03;2.03;;;0.90;99.90;;;;;;5030416;28;20764;-82
2024/01/07 02:13:03;;;;;;;2.17;0.75;;;0.90;99.90;;;;;;5035309;28;20048;-82
2024/01/07 02:15:30;;;;;;;2.40;1.98;;;0.90;99.90;;;;;;5042047;28;20033;-82
2024/01/07 02:17:56;;;;;;;3.38;2.20;;;0.80;99.90;;;;;;5025606;28;20040;-83
2024/01/07 02:20:21;;;;;;;2.30;1.15;;;0.80;99.90;;;;;;5026898;28;20048;-83
2024/01/07 02:22:47;;;;;;;1.67;1.38;;;0.80;99.90;;;;;;5032658;28;20040;-83
2024/01/07 02:25:13;;;;;;;3.55;2.13;;;0.80;99.90;;;;;;5026346;28;20562;-83
2024/01/07 02:27:39;;;;;;;3.80;2.20;;;0.80;99.90;;;;;;5028726;28;20480;-83
2024/01/07 02:30:05;;;;;;;1.38;1.05;;;0.80;99.90;;;;;;5042438;28;20477;-83
2024/01/07 02:32:35;;;;;;;2.58;1.25;;;0.80;99.90;;;;;;5025749;28;20036;-84
2024/01/07 02:35:01;;;;;;;1.38;1.00;;;0.80;99.90;;;;;;5044780;28;20048;-83
2024/01/07 02:37:27;;;;;;;1.23;0.85;;;0.80;99.90;;;;;;5026229;28;20044;-83
2024/01/07 02:39:53;;;;;;;3.30;1.27;;;0.80;99.90;;;;;;5042593;28;20529;-83
2024/01/07 02:42:19;;;;;;;3.42;1.80;;;0.80;99.90;;;;;;5024192;28;20037;-83
2024/01/07 02:44:44;;;;;;;2.03;1.38;;;0.80;99.90;;;;;;5051689;28;20101;-83
2024/01/07 02:47:10;;;;;;;3.45;1.92;;;0.70;99.90;;;;;;5032060;28;20028;-83
2024/01/07 02:49:36;;;;;;;2.50;1.52;;;0.80;99.90;;;;;;5028790;28;20099;-83
2024/01/07 02:52:01;;;;;;;1.73;1.45;;;0.80;99.90;;;;;;5047378;28;20529;-83
2024/01/07 02:54:27;;;;;;;2.17;1.42;;;0.80;99.90;;;;;;5052742;28;20033;-83
2024/01/07 02:56:54;;;;;;;0.63;0.63;;;0.80;99.90;;;;;;5029631;28;20079;-83
2024/01/07 02:59:20;;;;;;;2.20;2.00;;;0.80;99.90;;;;;;5045749;28;20056;-83
2024/01/07 03:01:46;;;;;;;1.02;0.95;;;0.80;99.90;;;;;;5043307;28;20025;-83
2024/01/07 03:04:13;;;;;;;5.35;2.00;;;0.80;99.90;;;;;;5047073;28;20131;-83
2024/01/07 03:06:39;;;;;;;1.13;0.90;;;0.80;99.90;;;;;;5041884;28;20045;-83
2024/01/07 03:09:05;;;;;;;1.20;1.10;;;0.80;99.90;;;;;;5039724;28;20044;-83
2024/01/07 03:11:30;;;;;;;0.60;0.60;;;0.80;99.90;;;;;;5042260;28;20101;-83
2024/01/07 03:13:57;;;;;;;2.30;1.70;;;0.80;99.90;;;;;;5032192;28;20048;-83
2024/01/07 03:16:23;;;;;;;3.08;0.57;;;0.70;99.90;;;;;;5043754;28;20111;-83
2024/01/07 03:18:49;;;;;;;3.03;2.22;;;0.70;99.90;;;;;;5048553;28;20028;-83
2024/01/07 03:21:19;;;;;;;2.33;1.33;;;0.70;99.90;;;;;;5041359;28;20040;-83
2024/01/07 03:23:45;;;;;;;2.30;1.30;;;0.70;99.90;;;;;;5040961;28;20052;-83
2024/01/07 03:26:11;;;;;;;2.92;1.92;;;0.70;99.90;;;;;;5044044;28;20077;-83
2024/01/07 03:28:37;;;;;;;1.25;1.05;;;0.70;99.90;;;;;;5041904;28;20098;-83
2024/01/07 03:31:15;;;;;;;1.98;1.88;;;0.70;99.90;;;;;;5022240;28;20425;-83
2024/01/07 03:33:41;;;;;;;1.13;0.95;;;0.70;99.90;;;;;;5045431;28;20036;-84
2024/01/07 03:36:12;;;;;;;1.40;0.77;;;0.60;99.90;;;;;;5042545;28;20098;-84
2024/01/07 03:38:39;;;;;;;0.80;0.70;;;0.60;99.90;;;;;;5040860;28;20044;-84
2024/01/07 03:41:05;;;;;;;4.28;1.00;;;0.60;99.90;;;;;;5025474;28;20057;-83
2024/01/07 03:43:30;;;;;;;1.00;0.47;;;0.60;99.90;;;;;;5046850;28;20380;-83
2024/01/07 03:45:56;;;;;;;2.83;1.30;;;0.60;99.90;;;;;;5042869;28;20052;-83
2024/01/07 03:48:22;;;;;;;0.90;0.85;;;0.50;99.90;;;;;;5037717;28;20044;-83
2024/01/07 03:50:48;;;;;;;1.38;1.13;;;0.50;99.90;;;;;;5044453;28;20041;-83
2024/01/07 03:53:14;;;;;;;1.38;0.88;;;0.50;99.90;;;;;;5024034;28;20044;-83
2024/01/07 03:55:39;;;;;;;1.17;0.85;;;0.60;99.90;;;;;;5045343;28;20033;-83
2024/01/07 03:58:05;;;;;;;0.73;0.70;;;0.60;99.90;;;;;;5044336;28;20102;-84
2024/01/07 04:00:32;;;;;;;0.85;0.85;;;0.60;99.90;;;;;;5034815;28;20384;-84
2024/01/07 04:02:58;;;;;;;5.15;0.80;;;0.60;99.90;;;;;;5030518;28;20053;-84
2024/01/07 04:05:24;;;;;;;2.15;1.33;;;0.60;99.90;;;;;;5034551;28;20390;-84
2024/01/07 04:07:49;;;;;;;1.80;1.48;;;0.70;99.90;;;;;;5031625;28;20048;-83
2024/01/07 04:10:17;;;;;;;1.60;0.80;;;0.60;99.90;;;;;;5034053;28;20040;-84
2024/01/07 04:12:42;;;;;;;1.60;1.13;;;0.60;99.90;;;;;;5034846;28;20094;-83
2024/01/07 04:15:09;;;;;;;3.33;1.48;;;0.60;99.90;;;;;;5032686;28;20575;-83
2024/01/07 04:17:34;;;;;;;1.55;1.20;;;0.60;99.90;;;;;;5027862;28;20033;-83
2024/01/07 04:20:00;;;;;;;0.70;0.70;;;0.60;99.90;;;;;;5044969;28;20496;-84
2024/01/07 04:22:26;;;;;;;1.58;0.70;;;0.70;99.90;;;;;;5045758;28;20039;-84
2024/01/07 04:24:51;;;;;;;1.55;1.15;;;0.60;99.90;;;;;;5047818;28;20036;-84
2024/01/07 04:27:17;;;;;;;0.82;0.68;;;0.60;99.90;;;;;;5047807;28;20051;-84
2024/01/07 04:29:43;;;;;;;7.68;1.70;;;0.50;99.90;;;;;;5051233;28;20044;-84
2024/01/07 04:32:09;;;;;;;0.30;0.25;;;0.60;99.90;;;;;;5035820;28;20037;-84
2024/01/07 04:34:34;;;;;;;0.60;0.60;;;0.60;99.90;;;;;;5033886;28;20440;-84
2024/01/07 04:37:00;;;;;;;0.90;0.77;;;0.60;99.90;;;;;;5045260;28;20040;-83
2024/01/07 04:39:26;;;;;;;5.57;2.08;;;0.70;99.90;;;;;;5049594;28;20400;-84
2024/01/07 04:41:52;;;;;;;0.65;0.65;;;0.50;99.90;;;;;;5052483;28;20037;-83
2024/01/07 04:44:18;;;;;;;1.38;0.80;;;0.50;99.90;;;;;;5038023;28;20063;-84
2024/01/07 04:46:43;;;;;;;0.38;0.38;;;0.50;99.90;;;;;;5027698;28;20029;-84
2024/01/07 04:49:09;;;;;;;3.10;0.70;;;0.40;99.90;;;;;;5041114;28;20041;-84
2024/01/07 04:51:36;;;;;;;1.48;0.73;;;0.50;99.90;;;;;;5047379;28;20052;-84
2024/01/07 04:54:02;;;;;;;1.10;0.88;;;0.50;99.90;;;;;;5049271;28;20041;-84
2024/01/07 04:56:28;;;;;;;1.80;1.05;;;0.50;99.90;;;;;;5035061;28;20029;-84
2024/01/07 04:58:53;;;;;;;0.47;0.47;;;0.40;99.90;;;;;;5043663;28;20043;-85
2024/01/07 05:01:19;;;;;;;1.98;0.77;;;0.50;99.90;;;;;;5045635;28;20071;-85
2024/01/07 05:03:45;;;;;;;1.10;0.70;;;0.40;99.90;;;;;;5052257;28;20048;-85
2024/01/07 05:06:11;;;;;;;0.10;0.10;;;0.40;99.90;;;;;;5046447;28;20111;-84
2024/01/07 05:08:37;;;;;;;1.98;0.90;;;0.50;99.90;;;;;;5033896;28;20041;-84
2024/01/07 05:11:04;;;;;;;2.35;1.17;;;0.50;99.90;;;;;;5041970;28;20049;-84
2024/01/07 05:13:30;;;;;;;2.55;1.35;;;0.40;99.90;;;;;;5053252;28;20075;-85
2024/01/07 05:15:56;;;;;;;3.58;1.08;;;0.50;99.90;;;;;;5049689;28;20393;-84
2024/01/07 05:18:25;;;;;;;1.80;0.82;;;0.50;99.90;;;;;;5045344;28;20120;-85
2024/01/07 05:20:51;;;;;;;1.02;0.47;;;0.50;99.90;;;;;;5031999;28;20037;-85
2024/01/07 05:23:17;;;;;;;1.33;1.05;;;0.50;99.90;;;;;;5049277;28;20051;-85
2024/01/07 05:25:44;;;;;;;1.13;0.93;;;0.50;99.90;;;;;;5049188;28;20036;-85
2024/01/07 05:28:10;;;;;;;1.08;0.77;;;0.50;99.90;;;;;;5047542;28;20644;-85
2024/01/07 05:30:36;;;;;;;0.90;0.50;;;0.50;99.90;;;;;;5025893;28;20362;-85
2024/01/07 05:33:01;;;;;;;0.28;0.28;;;0.50;99.90;;;;;;5035997;28;20048;-84
2024/01/07 05:35:27;;;;;;;0.00;0.00;;;0.40;99.90;;;;;;5043286;28;20033;-85
2024/01/07 05:37:53;;;;;;;5.38;0.40;;;0.60;99.90;;;;;;5043928;28;20040;-85
2024/01/07 05:40:18;;;;;;;0.45;0.45;;;0.40;99.90;;;;;;5044907;28;20055;-85
2024/01/07 05:42:44;;;;;;;1.20;0.88;;;0.40;99.90;;;;;;5065285;28;20040;-85
2024/01/07 05:45:10;;;;;;;0.65;0.55;;;0.40;99.90;;;;;;5041301;28;20076;-85
2024/01/07 05:47:36;;;;;;;0.10;0.10;;;0.40;99.90;;;;;;5026897;28;20048;-84
2024/01/07 05:50:02;;;;;;;0.25;0.20;;;0.40;99.90;;;;;;5033271;28;20135;-85
2024/01/07 05:52:28;;;;;;;0.43;0.22;;;0.40;99.90;;;;;;5031328;28;20040;-85
2024/01/07 05:54:53;;;;;;;1.27;0.98;;;0.40;99.90;;;;;;5039843;28;20052;-85
2024/01/07 05:57:19;;;;;;;0.57;0.55;;;0.40;99.90;;;;;;5043573;28;20039;-83
2024/01/07 05:59:45;;;;;;;0.65;0.43;;;0.40;99.90;;;;;;5042066;28;20068;-83
2024/01/07 06:02:12;;;;;;;1.00;0.85;;;0.40;99.90;;;;;;5042502;28;20060;-83
2024/01/07 06:04:38;;;;;;;0.95;0.85;;;0.30;99.90;;;;;;5027611;28;20081;-84
2024/01/07 06:07:04;;;;;;;0.63;0.38;;;0.40;99.90;;;;;;5041117;28;20049;-83
2024/01/07 06:09:30;;;;;;;1.23;0.55;;;0.50;99.90;;;;;;5045095;28;20124;-84
2024/01/07 06:11:56;;;;;;;0.70;0.60;;;0.40;99.90;;;;;;5029208;28;20542;-84
2024/01/07 06:14:22;;;;;;;0.25;0.17;;;0.40;99.90;;;;;;5031966;28;20048;-84
2024/01/07 06:16:48;;;;;;;0.20;0.17;;;0.40;99.90;;;;;;5041436;28;20566;-84
2024/01/07 06:19:16;;;;;;;1.58;0.77;;;0.40;99.90;;;;;;5043920;28;20131;-84
2024/01/07 06:21:42;;;;;;;0.73;0.22;;;0.40;99.90;;;;;;5048143;28;20071;-83
2024/01/07 06:24:08;;;;;;;0.47;0.20;;;0.40;99.90;;;;;;5044152;28;20447;-84
2024/01/07 06:26:34;;;;;;;0.85;0.35;;;0.40;99.90;;;;;;5029646;28;20033;-84
2024/01/07 06:29:00;;;;;;;0.63;0.63;;;0.40;99.90;;;;;;5049760;28;20041;-84
2024/01/07 06:31:26;;;;;;;1.83;0.55;;;0.40;99.90;;;;;;5030093;28;20033;-84
2024/01/07 06:33:52;;;;;;;1.50;0.73;;;0.40;99.90;;;;;;5043465;28;20586;-84
2024/01/07 06:36:18;;;;;;;0.55;0.43;;;0.40;99.90;;;;;;5038839;28;20048;-84
2024/01/07 06:38:44;;;;;;;0.30;0.22;;;0.40;99.90;;;;;;5034009;28;20047;-84
2024/01/07 06:41:12;;;;;;;1.20;0.28;;;0.40;99.90;;;;;;5043160;28;20094;-84
2024/01/07 06:43:38;;;;;;;3.10;0.75;;;0.40;99.90;;;;;;5040115;28;20444;-84
2024/01/07 06:46:04;;;;;;;0.38;0.30;;;0.40;99.90;;;;;;5033893;28;20049;-84
2024/01/07 06:48:30;;;;;;;1.35;0.40;;;0.40;99.90;;;;;;5026868;28;20428;-84
2024/01/07 06:50:56;;;;;;;0.73;0.38;;;0.40;99.90;;;;;;5026335;28;20045;-84
2024/01/07 06:53:21;;;;;;;0.13;0.13;;;0.40;99.90;;;;;;5040019;28;20115;-84
2024/01/07 06:55:47;;;;;;;0.15;0.13;;;0.40;99.90;;;;;;5043311;28;20693;-84
2024/01/07 06:58:13;;;;;;;0.73;0.38;;;0.40;99.90;;;;;;5048881;28;20072;-84
2024/01/07 07:00:38;;;;;;;0.10;0.10;;;0.40;99.90;;;;;;5043856;28;20135;-83
2024/01/07 07:03:05;;;;;;;0.65;0.00;;;0.40;99.90;;;;;;5030306;28;20049;-84
2024/01/07 07:05:31;;;;;;;0.05;0.05;;;0.40;99.90;;;;;;5026119;28;20074;-86
2024/01/07 07:07:57;;;;;;;0.40;0.20;;;0.40;99.90;;;;;;5057140;28;20033;-84
2024/01/07 07:10:23;;;;;;;0.10;0.10;;;0.40;99.90;;;;;;5073923;28;20067;-84
2024/01/07 07:12:50;;;;;;;0.77;0.43;;;0.40;99.90;;;;;;5053797;28;20059;-83
2024/01/07 07:15:17;;;;;;;1.45;0.50;;;0.50;99.90;;;;;;5064036;28;20088;-84
2024/01/07 07:17:42;;;;;;;0.30;0.22;;;0.40;99.90;;;;;;5026081;23;20063;-68
2024/01/07 07:20:09;;;;;;;0.15;0.15;;;0.50;99.90;;;;;;5028971;28;20111;-68
2024/01/07 07:22:34;;;;;;;1.95;0.35;;;0.50;99.90;;;;;;5012475;28;20064;-69
2024/01/07 07:25:00;;;;;;;0.30;0.20;;;0.50;99.90;;;;;;5021725;28;20049;-69
2024/01/07 07:27:26;;;;;;;0.63;0.20;;;0.50;99.90;;;;;;5012875;28;20435;-69
2024/01/07 07:29:52;;;;;;;0.38;0.30;;;0.50;99.90;;;;;;5022843;28;20485;-69
2024/01/07 07:32:18;;;;;;;0.10;0.10;;;0.50;99.90;;;;;;5028338;28;20044;-69
2024/01/07 07:34:43;;;;;;;0.55;0.25;;;0.50;99.90;;;;;;5028381;28;20045;-69
2024/01/07 07:37:10;;;;;;;0.55;0.55;;;0.50;99.90;;;;;;5009770;28;20045;-69
2024/01/07 07:39:35;;;;;;;0.45;0.22;;;0.50;99.90;;;;;;5021996;28;20438;-69
2024/01/07 07:42:01;;;;;;;0.10;0.10;;;0.50;99.90;;;;;;5028792;28;20098;-70
2024/01/07 07:44:27;;;;;;;1.05;0.40;;;0.50;99.90;;;;;;5023767;28;20386;-68
2024/01/07 07:46:53;;;;;;;0.38;0.22;;;0.50;99.90;;;;;;5009947;28;20042;-69
2024/01/07 07:49:18;;;;;;;1.20;0.47;;;0.50;99.90;;;;;;5022574;28;20045;-69
2024/01/07 07:51:44;;;;;;;0.80;0.43;;;0.50;99.90;;;;;;5019575;28;20056;-69
2024/01/07 07:54:10;;;;;;;0.20;0.20;;;0.50;99.90;;;;;;5025556;28;20194;-70
2024/01/07 07:56:36;;;;;;;1.48;0.52;;;0.50;99.90;;;;;;5016289;28;20037;-69
2024/01/07 07:59:02;;;;;;;1.05;0.10;;;0.50;99.90;;;;;;5026631;28;20218;-70
2024/01/07 08:01:28;;;;;;;0.63;0.35;;;0.50;99.90;;;;;;5022896;28;20476;-69
2024/01/07 08:03:54;;;;;;;0.10;0.05;;;0.50;99.90;;;;;;5027473;28;20087;-71
2024/01/07 08:06:20;;;;;;;0.85;0.38;;;0.50;99.90;;;;;;5025968;28;20037;-70
2024/01/07 08:08:45;;;;;;;0.30;0.10;;;0.40;99.90;;;;;;5040596;28;20194;-69
2024/01/07 08:11:11;;;;;;;0.10;0.10;;;0.40;99.90;;;;;;5029694;28;20120;-69
2024/01/07 08:13:38;;;;;;;0.00;0.00;;;0.40;99.90;;;;;;5034919;28;20025;-70
2024/01/07 08:16:05;;;;;;;0.17;0.17;;;0.30;99.90;;;;;;5018519;28;20077;-70
2024/01/07 08:18:31;;;;;;;1.55;0.60;;;0.30;99.90;;;;;;5024220;28;20501;-70
2024/01/07 08:20:57;;;;;;;0.55;0.40;;;0.30;99.90;;;;;;5019501;28;20132;-70
2024/01/07 08:23:24;;;;;;;0.75;0.40;;;0.20;99.90;;;;;;5020674;28;20057;-71
2024/01/07 08:25:51;;;;;;;4.32;1.02;;;0.20;99.90;;;;;;5028916;28;20051;-70
2024/01/07 08:28:17;;;;;;;0.00;0.00;;;0.20;99.90;;;;;;5046714;28;20049;-70
2024/01/07 08:30:44;;;;;;;1.58;0.22;;;0.20;99.90;;;;;;5026303;28;20044;-70
2024/01/07 08:33:10;;;;;;;0.35;0.28;;;0.20;99.90;;;;;;5024968;28;20381;-71
2024/01/07 08:35:36;;;;;;;0.05;0.00;;;0.10;99.90;;;;;;5027844;28;20076;-69
2024/01/07 08:38:03;;;;;;;0.20;0.20;;;0.10;99.90;;;;;;5029958;28;20047;-70
2024/01/07 08:40:29;;;;;;;0.30;0.30;;;0.10;99.90;;;;;;5028865;28;20071;-69
2024/01/07 08:42:55;;;;;;;4.28;0.38;;;0.10;99.90;;;;;;5010144;28;20045;-70
2024/01/07 08:45:21;;;;;;;0.00;0.00;;;0.10;99.90;;;;;;5026672;28;20053;-70
2024/01/07 08:47:47;;;;;;;4.60;0.40;;;0.00;99.90;;;;;;5029459;28;20083;-70
2024/01/07 08:50:13;;;;;;;2.75;0.32;;;0.00;99.90;;;;;;5046103;28;20413;-69
2024/01/07 08:52:38;;;;;;;0.20;0.20;;;0.00;99.90;;;;;;5007013;28;20045;-70
2024/01/07 08:55:06;;;;;;;0.50;0.30;;;0.00;99.90;;;;;;5028274;28;20049;-71
2024/01/07 08:57:34;;;;;;;0.70;0.52;;;0.00;99.90;;;;;;5006473;28;20039;-70
2024/01/07 09:00:00;;;;;;;0.75;0.32;;;0.00;99.90;;;;;;5018895;28;20161;-70
2024/01/07 09:02:26;;;;;;;0.20;0.20;;;0.00;99.90;;;;;;5028474;28;20072;-69
2024/01/07 09:04:52;;;;;;;0.38;0.30;;;0.00;99.90;;;;;;5028137;28;20048;-70
2024/01/07 09:07:19;;;;;;;0.32;0.30;;;0.00;99.90;;;;;;4990762;28;20068;-74
2024/01/07 09:09:45;;;;;;;1.38;0.55;;;0.00;99.90;;;;;;5013485;28;20068;-75
2024/01/07 09:12:10;;;;;;;0.30;0.22;;;0.00;99.90;;;;;;5044110;28;20049;-74
2024/01/07 09:14:40;;;;;;;0.50;0.22;;;0.00;99.90;;;;;;5021285;28;20377;-75
2024/01/07 09:17:05;;;;;;;0.52;0.45;;;0.00;99.90;;;;;;5022427;28;20053;-74
2024/01/07 09:19:31;;;;;;;0.10;0.10;;;0.10;99.90;;;;;;5024592;28;20071;-75
2024/01/07 09:22:00;;;;;;;0.17;0.17;;;0.10;99.90;;;;;;5015587;28;20120;-74
2024/01/07 09:24:25;;;;;;;1.23;0.80;;;0.10;99.90;;;;;;5028048;28;20121;-75
2024/01/07 09:26:51;;;;;;;0.90;0.20;;;0.10;99.90;;;;;;5007876;28;20091;-75
2024/01/07 09:29:17;;;;;;;0.00;0.00;;;0.10;99.90;;;;;;5022709;28;20375;-74
2024/01/07 09:31:43;;;;;;;0.63;0.20;;;0.20;99.90;;;;;;5011693;28;20465;-73
2024/01/07 09:34:09;;;;;;;0.22;0.20;;;0.20;99.90;;;;;;5042117;28;20116;-74
2024/01/07 09:36:36;;;;;;;0.00;0.00;;;0.20;99.90;;;;;;5024903;28;20037;-71
2024/01/07 09:39:04;;;;;;;0.28;0.28;;;0.30;99.90;;;;;;5027963;28;20045;-71
2024/01/07 09:41:30;;;;;;;0.10;0.10;;;0.30;99.90;;;;;;5023742;28;20076;-70
2024/01/07 09:43:58;;;;;;;0.85;0.30;;;0.30;99.90;;;;;;5015067;28;20096;-71
2024/01/07 09:46:25;;;;;;;0.35;0.20;;;0.40;99.90;;;;;;5024329;28;20080;-72
2024/01/07 09:48:51;;;;;;;0.77;0.50;;;0.50;99.90;;;;;;5021383;28;20126;-69
2024/01/07 09:51:21;;;;;;;0.45;0.40;;;0.60;99.90;;;;;;5043709;28;20040;-68
2024/01/07 09:53:50;;;;;;;0.40;0.17;;;0.50;99.90;;;;;;5052403;28;20044;-70
2024/01/07 09:56:29;;;;;;;0.28;0.20;;;0.60;99.90;;;;;;5007029;28;20140;-70
2024/01/07 09:58:55;;;;;;;0.00;0.00;;;0.60;99.90;;;;;;5035547;28;20095;-70
2024/01/07 10:01:20;;;;;;;0.60;0.30;;;0.70;99.90;;;;;;5021255;28;20484;-70
2024/01/07 10:03:46;;;;;;;0.08;0.08;;;0.70;99.90;;;;;;5023007;28;20433;-71
2024/01/07 10:06:13;;;;;;;0.30;0.20;;;0.70;99.90;;;;;;5013990;28;20118;-71
2024/01/07 10:08:39;;;;;;;0.28;0.22;;;0.70;99.90;;;;;;5021289;28;20397;-71
2024/01/07 10:11:04;;;;;;;0.15;0.10;;;0.80;99.90;;;;;;5018725;28;20124;-70
2024/01/07 10:13:32;;;;;;;0.10;0.10;;;0.80;99.90;;;;;;5020332;28;20041;-70
2024/01/07 10:15:57;;;;;;;0.10;0.00;;;0.90;99.90;;;;;;5025397;28;20037;-70
2024/01/07 10:18:24;;;;;;;0.00;0.00;;;1.00;99.90;;;;;;5015248;28;20048;-69
2024/01/07 10:20:50;;;;;;;0.52;0.32;;;1.10;99.90;;;;;;5023166;28;20086;-70
2024/01/07 10:23:19;;;;;;;0.45;0.20;;;1.20;99.90;;;;;;5011526;28;20045;-71
2024/01/07 10:25:45;;;;;;;0.10;0.10;;;1.30;99.90;;;;;;5036572;28;20083;-72
2024/01/07 10:28:11;;;;;;;0.15;0.13;;;1.30;99.90;;;;;;5007160;28;20080;-72
2024/01/07 10:30:40;;;;;;;0.00;0.00;;;1.30;99.90;;;;;;5003039;28;20106;-71
2024/01/07 10:33:07;;;;;;;0.10;0.10;;;1.30;99.90;;;;;;5020022;28;20052;-71
2024/01/07 10:35:35;;;;;;;0.10;0.10;;;1.30;99.90;;;;;;5024209;28;20446;-71
2024/01/07 10:38:01;;;;;;;6.30;0.43;;;1.30;99.90;;;;;;5008579;28;20401;-71
2024/01/07 10:40:29;;;;;;;0.05;0.03;;;1.20;99.90;;;;;;5001562;28;20037;-71
2024/01/07 10:42:55;;;;;;;0.30;0.20;;;1.30;99.90;;;;;;5018020;28;20493;-71
2024/01/07 10:45:22;;;;;;;0.55;0.30;;;1.20;99.90;;;;;;5021353;28;20111;-72
2024/01/07 10:47:55;;;;;;;0.70;0.17;;;1.20;99.90;;;;;;5023784;28;20099;-72
2024/01/07 10:50:21;;;;;;;0.00;0.00;;;1.30;99.90;;;;;;5009335;28;20045;-72
2024/01/07 10:52:57;;;;;;;0.40;0.30;;;1.30;99.90;;;;;;5023707;28;20044;-72
2024/01/07 10:55:26;;;;;;;0.15;0.15;;;1.30;99.90;;;;;;5018797;28;20497;-72
2024/01/07 10:57:53;;;;;;;1.17;0.52;;;1.30;99.90;;;;;;5038882;28;20049;-72
2024/01/07 11:00:19;;;;;;;0.10;0.10;;;1.30;99.90;;;;;;5024912;28;20397;-72
2024/01/07 11:03:02;;;;;;;0.57;0.28;;;1.30;99.90;;;;;;5009798;28;20177;-72
2024/01/07 11:05:33;;;;;;;1.35;0.25;;;1.30;99.90;;;;;;5028475;28;20517;-73
2024/01/07 11:08:13;;;;;;;0.38;0.17;;;1.40;99.90;;;;;;5025139;28;20402;-72
2024/01/07 11:10:46;;;;;;;0.25;0.10;;;1.40;99.90;;;;;;5023456;28;20041;-72
2024/01/07 11:13:38;;;;;;;0.82;0.65;;;1.40;99.90;;;;;;5001786;28;20044;-72
2024/01/07 11:16:09;;;;;;;0.03;0.03;;;1.40;99.90;;;;;;5024890;28;20046;-72
2024/01/07 11:18:51;;;;;;;0.10;0.10;;;1.40;99.90;;;;;;5007676;28;20045;-73
2024/01/07 11:21:24;;;;;;;0.47;0.20;;;1.50;99.90;;;;;;5030260;28;20216;-73
2024/01/07 11:23:52;;;;;;;0.25;0.20;;;1.60;99.90;;;;;;5040370;28;20092;-73
2024/01/07 11:26:20;;;;;;;0.10;0.10;;;1.60;99.90;;;;;;5019491;28;20078;-73
2024/01/07 11:28:55;;;;;;;0.00;0.00;;;1.60;99.90;;;;;;5025738;28;20417;-76
2024/01/07 11:31:41;;;;;;;0.80;0.30;;;1.60;99.90;;;;;;5021009;28;20045;-75
2024/01/07 11:34:10;;;;;;;1.55;0.52;;;1.50;99.90;;;;;;5002466;28;20041;-76
2024/01/07 11:36:37;;;;;;;0.30;0.20;;;1.40;99.90;;;;;;5018720;28;20086;-75
2024/01/07 11:39:05;;;;;;;0.22;0.22;;;1.30;99.90;;;;;;5018379;28;20041;-75
2024/01/07 11:41:33;;;;;;;0.75;0.20;;;1.30;99.90;;;;;;5018162;28;20032;-76
2024/01/07 11:44:00;;;;;;;0.40;0.17;;;1.30;99.90;;;;;;5011478;28;20068;-76
2024/01/07 11:46:32;;;;;;;0.00;0.00;;;1.30;99.90;;;;;;4997374;28;20049;-76
2024/01/07 11:48:59;;;;;;;0.00;0.00;;;1.30;99.90;;;;;;5008456;28;20397;-76
2024/01/07 11:51:32;;;;;;;0.30;0.03;;;1.30;99.90;;;;;;5003162;28;20406;-75
2024/01/07 11:53:59;;;;;;;0.35;0.30;;;1.30;99.90;;;;;;5022418;28;20073;-75
2024/01/07 11:56:26;;;;;;;3.30;0.40;;;1.30;99.90;;;;;;5024327;28;20397;-75
2024/01/07 11:58:52;;;;;;;0.08;0.05;;;1.30;99.90;;;;;;5001947;28;20038;-75
2024/01/07 12:01:20;;;;;;;0.20;0.13;;;1.40;99.90;;;;;;5020586;28;20169;-75
2024/01/07 12:03:46;;;;;;;1.30;0.30;;;1.40;99.90;;;;;;5026525;28;20547;-75
2024/01/07 12:06:13;;;;;;;0.40;0.20;;;1.40;99.90;;;;;;5013703;28;20048;-75
2024/01/07 12:08:48;;;;;;;0.10;0.10;;;1.50;99.90;;;;;;5008499;28;20040;-75
2024/01/07 12:11:15;;;;;;;0.20;0.17;;;1.50;99.90;;;;;;5022126;28;20083;-75
2024/01/07 12:13:42;;;;;;;0.60;0.35;;;1.50;99.90;;;;;;5038555;28;20033;-76
2024/01/07 12:16:10;;;;;;;0.85;0.52;;;1.40;99.90;;;;;;5002071;28;20045;-75
2024/01/07 12:18:39;;;;;;;4.47;0.28;;;1.60;99.90;;;;;;5025990;28;20416;-75
2024/01/07 12:21:05;;;;;;;0.20;0.20;;;1.50;99.90;;;;;;5025154;28;20045;-75
2024/01/07 12:23:38;;;;;;;0.00;0.00;;;1.60;99.90;;;;;;5028163;28;20604;-75
2024/01/07 12:26:09;;;;;;;0.15;0.15;;;1.60;99.90;;;;;;5021863;28;20048;-75
2024/01/07 12:28:34;;;;;;;1.48;0.13;;;1.60;99.90;;;;;;5026599;28;20053;-75
2024/01/07 12:31:01;;;;;;;2.30;0.40;;;1.60;99.90;;;;;;5023449;28;20051;-75
2024/01/07 12:33:30;;;;;;;0.43;0.20;;;1.60;99.90;;;;;;5021864;28;20152;-76
2024/01/07 12:35:55;;;;;;;3.50;0.43;;;1.70;99.90;;;;;;5022399;28;20121;-75
2024/01/07 12:38:25;;;;;;;0.82;0.60;;;1.70;99.90;;;;;;5022473;28;20436;-75
2024/01/07 12:40:52;;;;;;;0.00;0.00;;;1.70;99.90;;;;;;5027200;28;20087;-75
2024/01/07 12:43:17;;;;;;;0.25;0.20;;;1.80;99.90;;;;;;5026370;28;20115;-74
2024/01/07 12:45:44;;;;;;;3.42;0.90;;;1.80;99.90;;;;;;5026620;28;20124;-76
2024/01/07 12:48:09;;;;;;;0.30;0.20;;;1.80;99.90;;;;;;5029027;28;20068;-76
2024/01/07 12:50:35;;;;;;;0.38;0.30;;;1.80;99.90;;;;;;5029714;28;20041;-76
2024/01/07 12:53:01;;;;;;;0.00;0.00;;;1.80;99.90;;;;;;5031400;28;20505;-76
2024/01/07 12:55:27;;;;;;;0.10;0.10;;;1.80;99.90;;;;;;5028978;28;20056;-77